sensor_id;sensor_type;location;lat;lon;timestamp;P1;durP1;ratioP1;P2;durP2;ratioP2
48987;SDS011;34799;51.440;-2.534;2022-08-03T00:01:36;6.10;;;1.92;;
48987;SDS011;34799;51.440;-2.534;2022-08-03T00:04:06;7.30;;;1.80;;
48987;SDS011;34799;51.440;-2.534;2022-08-03T00:06:34;6.72;;;1.27;;
48987;SDS011;34799;51.440;-2.534;2022-08-03T00:09:03;11.20;;;1.90;;
48987;SDS011;34799;51.440;-2.534;2022-08-03T00:11:32;9.00;;;1.40;;
48987;SDS011;34799;51.440;-2.534;2022-08-03T00:14:00;11.98;;;1.83;;
48987;SDS011;34799;51.440;-2.534;2022-08-03T00:16:27;7.35;;;1.50;;
48987;SDS011;34799;51.440;-2.534;2022-08-03T00:18:54;8.73;;;1.65;;
48987;SDS011;34799;51.440;-2.534;2022-08-03T00:21:21;6.50;;;1.30;;
48987;SDS011;34799;51.440;-2.534;2022-08-03T00:23:50;4.43;;;1.05;;
48987;SDS011;34799;51.440;-2.534;2022-08-03T00:26:20;6.45;;;1.35;;
48987;SDS011;34799;51.440;-2.534;2022-08-03T00:28:48;6.60;;;1.13;;
48987;SDS011;34799;51.440;-2.534;2022-08-03T00:31:17;3.30;;;0.93;;
48987;SDS011;34799;51.440;-2.534;2022-08-03T00:33:44;8.25;;;1.52;;
48987;SDS011;34799;51.440;-2.534;2022-08-03T00:36:11;9.65;;;1.55;;
48987;SDS011;34799;51.440;-2.534;2022-08-03T00:38:38;8.68;;;1.23;;
48987;SDS011;34799;51.440;-2.534;2022-08-03T00:41:05;4.78;;;1.55;;
48987;SDS011;34799;51.440;-2.534;2022-08-03T00:43:32;3.42;;;1.00;;
48987;SDS011;34799;51.440;-2.534;2022-08-03T00:46:00;7.90;;;1.15;;
48987;SDS011;34799;51.440;-2.534;2022-08-03T00:48:27;7.00;;;1.60;;
48987;SDS011;34799;51.440;-2.534;2022-08-03T00:50:55;7.10;;;1.58;;
48987;SDS011;34799;51.440;-2.534;2022-08-03T00:53:22;8.95;;;2.63;;
48987;SDS011;34799;51.440;-2.534;2022-08-03T00:55:50;5.38;;;2.13;;
48987;SDS011;34799;51.440;-2.534;2022-08-03T00:58:18;3.67;;;1.48;;
48987;SDS011;34799;51.440;-2.534;2022-08-03T01:00:45;6.03;;;1.90;;
48987;SDS011;34799;51.440;-2.534;2022-08-03T01:03:12;8.50;;;2.47;;
48987;SDS011;34799;51.440;-2.534;2022-08-03T01:11:23;9.07;;;2.25;;
48987;SDS011;34799;51.440;-2.534;2022-08-03T01:25:16;9.73;;;4.90;;
48987;SDS011;34799;51.440;-2.534;2022-08-03T01:30:42;8.25;;;4.13;;
48987;SDS011;34799;51.440;-2.534;2022-08-03T01:33:12;6.75;;;2.90;;
48987;SDS011;34799;51.440;-2.534;2022-08-03T01:35:44;7.15;;;2.35;;
48987;SDS011;34799;51.440;-2.534;2022-08-03T01:38:26;7.80;;;2.28;;
48987;SDS011;34799;51.440;-2.534;2022-08-03T01:41:07;5.60;;;2.30;;
48987;SDS011;34799;51.440;-2.534;2022-08-03T01:43:39;7.10;;;1.67;;
48987;SDS011;34799;51.440;-2.534;2022-08-03T01:46:09;5.88;;;1.38;;
48987;SDS011;34799;51.440;-2.534;2022-08-03T01:48:38;5.30;;;0.85;;
48987;SDS011;34799;51.440;-2.534;2022-08-03T01:51:09;7.50;;;1.13;;
48987;SDS011;34799;51.440;-2.534;2022-08-03T01:53:37;5.53;;;0.68;;
48987;SDS011;34799;51.440;-2.534;2022-08-03T01:56:10;6.18;;;0.85;;
48987;SDS011;34799;51.440;-2.534;2022-08-03T01:58:38;7.85;;;1.17;;
48987;SDS011;34799;51.440;-2.534;2022-08-03T02:01:07;4.65;;;1.00;;
48987;SDS011;34799;51.440;-2.534;2022-08-03T02:03:37;9.38;;;1.88;;
48987;SDS011;34799;51.440;-2.534;2022-08-03T02:06:08;6.72;;;1.13;;
48987;SDS011;34799;51.440;-2.534;2022-08-03T02:08:50;9.10;;;1.10;;
48987;SDS011;34799;51.440;-2.534;2022-08-03T02:11:21;9.63;;;1.55;;
48987;SDS011;34799;51.440;-2.534;2022-08-03T02:13:48;9.40;;;1.58;;
48987;SDS011;34799;51.440;-2.534;2022-08-03T02:16:17;6.03;;;1.00;;
48987;SDS011;34799;51.440;-2.534;2022-08-03T02:18:45;6.20;;;0.77;;
48987;SDS011;34799;51.440;-2.534;2022-08-03T02:21:14;5.30;;;0.77;;
48987;SDS011;34799;51.440;-2.534;2022-08-03T02:23:41;6.50;;;1.30;;
48987;SDS011;34799;51.440;-2.534;2022-08-03T02:26:10;5.13;;;0.70;;
48987;SDS011;34799;51.440;-2.534;2022-08-03T02:28:42;5.30;;;1.08;;
48987;SDS011;34799;51.440;-2.534;2022-08-03T02:31:17;2.35;;;0.95;;
48987;SDS011;34799;51.440;-2.534;2022-08-03T02:33:52;4.90;;;0.40;;
48987;SDS011;34799;51.440;-2.534;2022-08-03T02:36:24;6.35;;;1.20;;
48987;SDS011;34799;51.440;-2.534;2022-08-03T02:38:55;6.07;;;0.90;;
48987;SDS011;34799;51.440;-2.534;2022-08-03T02:41:30;10.02;;;1.85;;
48987;SDS011;34799;51.440;-2.534;2022-08-03T02:44:01;4.65;;;0.70;;
48987;SDS011;34799;51.440;-2.534;2022-08-03T02:46:34;4.68;;;0.60;;
48987;SDS011;34799;51.440;-2.534;2022-08-03T02:49:09;3.47;;;0.70;;
48987;SDS011;34799;51.440;-2.534;2022-08-03T02:51:39;3.15;;;0.60;;
48987;SDS011;34799;51.440;-2.534;2022-08-03T02:54:09;3.67;;;0.55;;
48987;SDS011;34799;51.440;-2.534;2022-08-03T02:56:37;6.97;;;1.08;;
48987;SDS011;34799;51.440;-2.534;2022-08-03T02:59:06;4.18;;;1.20;;
48987;SDS011;34799;51.440;-2.534;2022-08-03T03:01:35;4.05;;;0.50;;
48987;SDS011;34799;51.440;-2.534;2022-08-03T03:04:04;4.38;;;0.77;;
48987;SDS011;34799;51.440;-2.534;2022-08-03T03:06:32;5.10;;;1.10;;
48987;SDS011;34799;51.440;-2.534;2022-08-03T03:09:02;5.43;;;0.50;;
48987;SDS011;34799;51.440;-2.534;2022-08-03T03:11:29;7.72;;;0.60;;
48987;SDS011;34799;51.440;-2.534;2022-08-03T03:13:57;2.22;;;0.40;;
48987;SDS011;34799;51.440;-2.534;2022-08-03T03:16:25;6.13;;;1.00;;
48987;SDS011;34799;51.440;-2.534;2022-08-03T03:18:54;6.85;;;0.45;;
48987;SDS011;34799;51.440;-2.534;2022-08-03T03:21:22;5.70;;;0.50;;
48987;SDS011;34799;51.440;-2.534;2022-08-03T03:23:51;5.80;;;0.77;;
48987;SDS011;34799;51.440;-2.534;2022-08-03T03:26:20;4.68;;;0.40;;
48987;SDS011;34799;51.440;-2.534;2022-08-03T03:28:47;6.53;;;0.47;;
48987;SDS011;34799;51.440;-2.534;2022-08-03T03:31:15;4.82;;;0.40;;
48987;SDS011;34799;51.440;-2.534;2022-08-03T03:33:42;6.57;;;0.90;;
48987;SDS011;34799;51.440;-2.534;2022-08-03T03:36:09;3.33;;;0.40;;
48987;SDS011;34799;51.440;-2.534;2022-08-03T03:38:37;2.38;;;0.30;;
48987;SDS011;34799;51.440;-2.534;2022-08-03T03:41:05;5.65;;;0.73;;
48987;SDS011;34799;51.440;-2.534;2022-08-03T03:43:32;1.30;;;0.30;;
48987;SDS011;34799;51.440;-2.534;2022-08-03T03:45:59;3.03;;;0.63;;
48987;SDS011;34799;51.440;-2.534;2022-08-03T03:48:27;1.67;;;0.40;;
48987;SDS011;34799;51.440;-2.534;2022-08-03T03:50:56;3.22;;;0.40;;
48987;SDS011;34799;51.440;-2.534;2022-08-03T03:53:24;2.47;;;0.40;;
48987;SDS011;34799;51.440;-2.534;2022-08-03T03:55:52;2.00;;;0.20;;
48987;SDS011;34799;51.440;-2.534;2022-08-03T03:58:19;2.97;;;0.38;;
48987;SDS011;34799;51.440;-2.534;2022-08-03T04:00:48;3.22;;;0.22;;
48987;SDS011;34799;51.440;-2.534;2022-08-03T04:03:15;2.65;;;0.30;;
48987;SDS011;34799;51.440;-2.534;2022-08-03T04:05:42;2.88;;;0.50;;
48987;SDS011;34799;51.440;-2.534;2022-08-03T04:08:28;3.35;;;0.50;;
48987;SDS011;34799;51.440;-2.534;2022-08-03T04:11:21;4.07;;;0.30;;
48987;SDS011;34799;51.440;-2.534;2022-08-03T04:13:57;3.65;;;0.50;;
48987;SDS011;34799;51.440;-2.534;2022-08-03T04:16:31;4.60;;;0.40;;
48987;SDS011;34799;51.440;-2.534;2022-08-03T04:19:07;3.92;;;0.35;;
48987;SDS011;34799;51.440;-2.534;2022-08-03T04:21:39;2.38;;;0.30;;
48987;SDS011;34799;51.440;-2.534;2022-08-03T04:24:09;3.47;;;0.70;;
48987;SDS011;34799;51.440;-2.534;2022-08-03T04:26:39;3.25;;;0.60;;
48987;SDS011;34799;51.440;-2.534;2022-08-03T04:29:09;3.50;;;0.30;;
48987;SDS011;34799;51.440;-2.534;2022-08-03T04:31:38;4.35;;;0.65;;
48987;SDS011;34799;51.440;-2.534;2022-08-03T04:34:06;3.92;;;0.50;;
48987;SDS011;34799;51.440;-2.534;2022-08-03T04:36:35;1.30;;;0.22;;
48987;SDS011;34799;51.440;-2.534;2022-08-03T04:39:17;3.53;;;0.40;;
48987;SDS011;34799;51.440;-2.534;2022-08-03T04:41:54;1.88;;;0.38;;
48987;SDS011;34799;51.440;-2.534;2022-08-03T04:44:25;1.88;;;0.30;;
48987;SDS011;34799;51.440;-2.534;2022-08-03T04:46:54;1.92;;;0.60;;
48987;SDS011;34799;51.440;-2.534;2022-08-03T04:49:22;3.13;;;0.30;;
48987;SDS011;34799;51.440;-2.534;2022-08-03T04:51:50;0.82;;;0.30;;
48987;SDS011;34799;51.440;-2.534;2022-08-03T04:54:18;3.50;;;0.40;;
48987;SDS011;34799;51.440;-2.534;2022-08-03T04:56:45;1.02;;;0.30;;
48987;SDS011;34799;51.440;-2.534;2022-08-03T04:59:12;4.15;;;0.22;;
48987;SDS011;34799;51.440;-2.534;2022-08-03T05:01:40;3.80;;;0.57;;
48987;SDS011;34799;51.440;-2.534;2022-08-03T05:04:08;1.90;;;0.20;;
48987;SDS011;34799;51.440;-2.534;2022-08-03T05:06:36;4.82;;;0.40;;
48987;SDS011;34799;51.440;-2.534;2022-08-03T05:09:03;4.75;;;0.40;;
48987;SDS011;34799;51.440;-2.534;2022-08-03T05:11:30;9.27;;;0.50;;
48987;SDS011;34799;51.440;-2.534;2022-08-03T05:13:57;1.88;;;0.25;;
48987;SDS011;34799;51.440;-2.534;2022-08-03T05:16:24;2.92;;;0.50;;
48987;SDS011;34799;51.440;-2.534;2022-08-03T05:18:52;3.22;;;0.30;;
48987;SDS011;34799;51.440;-2.534;2022-08-03T05:21:20;1.33;;;0.25;;
48987;SDS011;34799;51.440;-2.534;2022-08-03T05:23:47;1.80;;;0.65;;
48987;SDS011;34799;51.440;-2.534;2022-08-03T05:26:14;3.10;;;0.30;;
48987;SDS011;34799;51.440;-2.534;2022-08-03T05:28:41;2.08;;;0.63;;
48987;SDS011;34799;51.440;-2.534;2022-08-03T05:31:10;1.65;;;0.30;;
48987;SDS011;34799;51.440;-2.534;2022-08-03T05:33:38;5.15;;;0.30;;
48987;SDS011;34799;51.440;-2.534;2022-08-03T05:36:06;2.75;;;0.30;;
48987;SDS011;34799;51.440;-2.534;2022-08-03T05:38:33;1.98;;;0.40;;
48987;SDS011;34799;51.440;-2.534;2022-08-03T05:41:03;5.63;;;0.40;;
48987;SDS011;34799;51.440;-2.534;2022-08-03T05:43:30;2.17;;;0.32;;
48987;SDS011;34799;51.440;-2.534;2022-08-03T05:45:57;2.53;;;0.35;;
48987;SDS011;34799;51.440;-2.534;2022-08-03T05:48:26;2.63;;;0.40;;
48987;SDS011;34799;51.440;-2.534;2022-08-03T05:50:55;5.18;;;0.50;;
48987;SDS011;34799;51.440;-2.534;2022-08-03T05:53:22;3.33;;;0.65;;
48987;SDS011;34799;51.440;-2.534;2022-08-03T05:55:49;3.90;;;0.35;;
48987;SDS011;34799;51.440;-2.534;2022-08-03T05:58:20;1.73;;;0.30;;
48987;SDS011;34799;51.440;-2.534;2022-08-03T06:00:48;3.47;;;0.68;;
48987;SDS011;34799;51.440;-2.534;2022-08-03T06:03:15;1.77;;;0.30;;
48987;SDS011;34799;51.440;-2.534;2022-08-03T06:05:42;4.35;;;0.40;;
48987;SDS011;34799;51.440;-2.534;2022-08-03T06:08:09;1.60;;;0.30;;
48987;SDS011;34799;51.440;-2.534;2022-08-03T06:10:36;2.65;;;0.40;;
48987;SDS011;34799;51.440;-2.534;2022-08-03T06:13:05;2.45;;;0.32;;
48987;SDS011;34799;51.440;-2.534;2022-08-03T06:15:32;1.65;;;0.40;;
48987;SDS011;34799;51.440;-2.534;2022-08-03T06:18:00;1.75;;;0.22;;
48987;SDS011;34799;51.440;-2.534;2022-08-03T06:20:27;3.17;;;0.68;;
48987;SDS011;34799;51.440;-2.534;2022-08-03T06:22:57;2.47;;;0.20;;
48987;SDS011;34799;51.440;-2.534;2022-08-03T06:25:24;2.78;;;0.35;;
48987;SDS011;34799;51.440;-2.534;2022-08-03T06:27:51;1.13;;;0.50;;
48987;SDS011;34799;51.440;-2.534;2022-08-03T06:30:18;1.80;;;0.25;;
48987;SDS011;34799;51.440;-2.534;2022-08-03T06:32:46;1.42;;;0.20;;
48987;SDS011;34799;51.440;-2.534;2022-08-03T06:35:14;2.85;;;0.45;;
48987;SDS011;34799;51.440;-2.534;2022-08-03T06:37:42;1.55;;;0.50;;
48987;SDS011;34799;51.440;-2.534;2022-08-03T06:40:17;1.55;;;0.35;;
48987;SDS011;34799;51.440;-2.534;2022-08-03T06:42:45;4.72;;;0.20;;
48987;SDS011;34799;51.440;-2.534;2022-08-03T06:45:12;0.95;;;0.45;;
48987;SDS011;34799;51.440;-2.534;2022-08-03T06:47:41;2.75;;;0.40;;
48987;SDS011;34799;51.440;-2.534;2022-08-03T06:50:09;1.73;;;0.30;;
48987;SDS011;34799;51.440;-2.534;2022-08-03T06:52:36;2.65;;;0.20;;
48987;SDS011;34799;51.440;-2.534;2022-08-03T06:55:04;3.42;;;0.22;;
48987;SDS011;34799;51.440;-2.534;2022-08-03T06:57:34;1.10;;;0.22;;
48987;SDS011;34799;51.440;-2.534;2022-08-03T07:00:01;1.65;;;0.50;;
48987;SDS011;34799;51.440;-2.534;2022-08-03T07:02:28;0.98;;;0.30;;
48987;SDS011;34799;51.440;-2.534;2022-08-03T07:04:55;2.80;;;0.20;;
48987;SDS011;34799;51.440;-2.534;2022-08-03T07:07:23;2.60;;;0.30;;
48987;SDS011;34799;51.440;-2.534;2022-08-03T07:09:51;2.08;;;0.20;;
48987;SDS011;34799;51.440;-2.534;2022-08-03T07:12:19;2.70;;;0.20;;
48987;SDS011;34799;51.440;-2.534;2022-08-03T07:14:46;1.20;;;0.20;;
48987;SDS011;34799;51.440;-2.534;2022-08-03T07:17:13;2.83;;;0.20;;
48987;SDS011;34799;51.440;-2.534;2022-08-03T07:19:40;2.05;;;0.20;;
48987;SDS011;34799;51.440;-2.534;2022-08-03T07:22:07;0.75;;;0.10;;
48987;SDS011;34799;51.440;-2.534;2022-08-03T07:24:35;1.23;;;0.20;;
48987;SDS011;34799;51.440;-2.534;2022-08-03T07:27:02;1.15;;;0.38;;
48987;SDS011;34799;51.440;-2.534;2022-08-03T07:29:30;4.85;;;0.22;;
48987;SDS011;34799;51.440;-2.534;2022-08-03T07:31:57;1.35;;;0.20;;
48987;SDS011;34799;51.440;-2.534;2022-08-03T07:34:24;3.63;;;0.20;;
48987;SDS011;34799;51.440;-2.534;2022-08-03T07:36:51;0.85;;;0.20;;
48987;SDS011;34799;51.440;-2.534;2022-08-03T07:39:19;0.70;;;0.10;;
48987;SDS011;34799;51.440;-2.534;2022-08-03T07:41:46;2.47;;;0.75;;
48987;SDS011;34799;51.440;-2.534;2022-08-03T07:44:15;1.95;;;0.25;;
48987;SDS011;34799;51.440;-2.534;2022-08-03T07:46:43;3.95;;;0.20;;
48987;SDS011;34799;51.440;-2.534;2022-08-03T07:49:11;2.92;;;0.55;;
48987;SDS011;34799;51.440;-2.534;2022-08-03T07:51:39;0.73;;;0.10;;
48987;SDS011;34799;51.440;-2.534;2022-08-03T07:54:06;2.80;;;0.25;;
48987;SDS011;34799;51.440;-2.534;2022-08-03T07:56:37;2.13;;;0.40;;
48987;SDS011;34799;51.440;-2.534;2022-08-03T07:59:04;1.73;;;0.52;;
48987;SDS011;34799;51.440;-2.534;2022-08-03T08:01:31;0.30;;;0.20;;
48987;SDS011;34799;51.440;-2.534;2022-08-03T08:04:03;1.92;;;0.30;;
48987;SDS011;34799;51.440;-2.534;2022-08-03T08:06:30;0.85;;;0.10;;
48987;SDS011;34799;51.440;-2.534;2022-08-03T08:08:58;1.40;;;0.35;;
48987;SDS011;34799;51.440;-2.534;2022-08-03T08:11:29;1.25;;;0.13;;
48987;SDS011;34799;51.440;-2.534;2022-08-03T08:13:56;2.60;;;0.20;;
48987;SDS011;34799;51.440;-2.534;2022-08-03T08:16:23;1.58;;;0.30;;
48987;SDS011;34799;51.440;-2.534;2022-08-03T08:18:50;1.70;;;0.17;;
48987;SDS011;34799;51.440;-2.534;2022-08-03T08:21:17;1.25;;;0.30;;
48987;SDS011;34799;51.440;-2.534;2022-08-03T08:23:44;1.48;;;0.20;;
48987;SDS011;34799;51.440;-2.534;2022-08-03T08:26:13;0.65;;;0.30;;
48987;SDS011;34799;51.440;-2.534;2022-08-03T08:28:40;1.23;;;0.10;;
48987;SDS011;34799;51.440;-2.534;2022-08-03T08:31:07;0.90;;;0.20;;
48987;SDS011;34799;51.440;-2.534;2022-08-03T08:33:34;1.30;;;0.10;;
48987;SDS011;34799;51.440;-2.534;2022-08-03T08:36:13;1.50;;;0.13;;
48987;SDS011;34799;51.440;-2.534;2022-08-03T08:38:41;1.35;;;0.15;;
48987;SDS011;34799;51.440;-2.534;2022-08-03T08:41:11;0.80;;;0.40;;
48987;SDS011;34799;51.440;-2.534;2022-08-03T08:43:41;0.88;;;0.20;;
48987;SDS011;34799;51.440;-2.534;2022-08-03T08:46:12;1.05;;;0.10;;
48987;SDS011;34799;51.440;-2.534;2022-08-03T08:48:43;4.97;;;0.25;;
48987;SDS011;34799;51.440;-2.534;2022-08-03T08:51:11;0.47;;;0.10;;
48987;SDS011;34799;51.440;-2.534;2022-08-03T08:53:40;1.95;;;0.30;;
48987;SDS011;34799;51.440;-2.534;2022-08-03T08:56:12;2.67;;;0.10;;
48987;SDS011;34799;51.440;-2.534;2022-08-03T08:58:46;0.25;;;0.10;;
48987;SDS011;34799;51.440;-2.534;2022-08-03T09:01:18;0.30;;;0.10;;
48987;SDS011;34799;51.440;-2.534;2022-08-03T09:03:47;0.90;;;0.20;;
48987;SDS011;34799;51.440;-2.534;2022-08-03T09:06:15;1.10;;;0.50;;
48987;SDS011;34799;51.440;-2.534;2022-08-03T09:08:42;1.02;;;0.77;;
48987;SDS011;34799;51.440;-2.534;2022-08-03T09:11:11;2.30;;;0.70;;
48987;SDS011;34799;51.440;-2.534;2022-08-03T09:13:38;1.02;;;0.50;;
48987;SDS011;34799;51.440;-2.534;2022-08-03T09:16:13;1.20;;;0.50;;
48987;SDS011;34799;51.440;-2.534;2022-08-03T09:18:42;0.95;;;0.30;;
48987;SDS011;34799;51.440;-2.534;2022-08-03T09:21:13;1.40;;;0.40;;
48987;SDS011;34799;51.440;-2.534;2022-08-03T09:23:59;1.92;;;0.30;;
48987;SDS011;34799;51.440;-2.534;2022-08-03T09:26:29;0.40;;;0.20;;
48987;SDS011;34799;51.440;-2.534;2022-08-03T09:31:31;0.20;;;0.10;;
48987;SDS011;34799;51.440;-2.534;2022-08-03T09:34:10;0.28;;;0.20;;
48987;SDS011;34799;51.440;-2.534;2022-08-03T09:36:46;1.02;;;0.28;;
48987;SDS011;34799;51.440;-2.534;2022-08-03T09:39:15;0.20;;;0.10;;
48987;SDS011;34799;51.440;-2.534;2022-08-03T09:41:45;2.05;;;0.10;;
48987;SDS011;34799;51.440;-2.534;2022-08-03T09:44:14;0.20;;;0.10;;
48987;SDS011;34799;51.440;-2.534;2022-08-03T09:46:48;0.50;;;0.17;;
48987;SDS011;34799;51.440;-2.534;2022-08-03T09:49:15;0.60;;;0.10;;
48987;SDS011;34799;51.440;-2.534;2022-08-03T09:51:45;1.17;;;0.10;;
48987;SDS011;34799;51.440;-2.534;2022-08-03T09:54:12;0.52;;;0.10;;
48987;SDS011;34799;51.440;-2.534;2022-08-03T09:56:50;1.40;;;0.10;;
48987;SDS011;34799;51.440;-2.534;2022-08-03T09:59:26;1.42;;;0.20;;
48987;SDS011;34799;51.440;-2.534;2022-08-03T10:01:55;0.95;;;0.30;;
48987;SDS011;34799;51.440;-2.534;2022-08-03T10:04:25;0.60;;;0.40;;
48987;SDS011;34799;51.440;-2.534;2022-08-03T10:07:04;0.55;;;0.40;;
48987;SDS011;34799;51.440;-2.534;2022-08-03T10:09:35;0.40;;;0.30;;
48987;SDS011;34799;51.440;-2.534;2022-08-03T10:12:10;1.33;;;0.50;;
48987;SDS011;34799;51.440;-2.534;2022-08-03T10:14:39;1.08;;;0.40;;
48987;SDS011;34799;51.440;-2.534;2022-08-03T10:17:10;0.32;;;0.20;;
48987;SDS011;34799;51.440;-2.534;2022-08-03T10:19:37;1.27;;;0.40;;
48987;SDS011;34799;51.440;-2.534;2022-08-03T10:22:18;2.15;;;0.50;;
48987;SDS011;34799;51.440;-2.534;2022-08-03T10:24:59;2.40;;;0.40;;
48987;SDS011;34799;51.440;-2.534;2022-08-03T10:27:39;1.33;;;0.40;;
48987;SDS011;34799;51.440;-2.534;2022-08-03T10:30:08;3.05;;;0.40;;
48987;SDS011;34799;51.440;-2.534;2022-08-03T10:32:58;1.52;;;0.32;;
48987;SDS011;34799;51.440;-2.534;2022-08-03T10:35:30;2.60;;;0.50;;
48987;SDS011;34799;51.440;-2.534;2022-08-03T10:37:58;0.82;;;0.45;;
48987;SDS011;34799;51.440;-2.534;2022-08-03T10:40:30;2.63;;;0.70;;
48987;SDS011;34799;51.440;-2.534;2022-08-03T10:43:17;2.55;;;0.60;;
48987;SDS011;34799;51.440;-2.534;2022-08-03T10:45:47;2.33;;;0.40;;
48987;SDS011;34799;51.440;-2.534;2022-08-03T10:48:16;2.83;;;0.60;;
48987;SDS011;34799;51.440;-2.534;2022-08-03T10:50:45;3.67;;;0.50;;
48987;SDS011;34799;51.440;-2.534;2022-08-03T10:53:15;1.90;;;0.50;;
48987;SDS011;34799;51.440;-2.534;2022-08-03T10:56:01;5.80;;;0.80;;
48987;SDS011;34799;51.440;-2.534;2022-08-03T10:58:49;5.15;;;0.80;;
48987;SDS011;34799;51.440;-2.534;2022-08-03T11:01:19;3.42;;;0.70;;
48987;SDS011;34799;51.440;-2.534;2022-08-03T11:04:19;4.00;;;0.73;;
48987;SDS011;34799;51.440;-2.534;2022-08-03T11:09:50;6.90;;;0.98;;
48987;SDS011;34799;51.440;-2.534;2022-08-03T11:12:26;6.55;;;0.90;;
48987;SDS011;34799;51.440;-2.534;2022-08-03T11:14:59;4.18;;;1.05;;
48987;SDS011;34799;51.440;-2.534;2022-08-03T11:17:30;4.78;;;0.75;;
48987;SDS011;34799;51.440;-2.534;2022-08-03T11:20:00;4.22;;;0.65;;
48987;SDS011;34799;51.440;-2.534;2022-08-03T11:22:46;5.05;;;0.60;;
48987;SDS011;34799;51.440;-2.534;2022-08-03T11:25:14;3.95;;;1.00;;
48987;SDS011;34799;51.440;-2.534;2022-08-03T11:27:42;3.53;;;0.90;;
48987;SDS011;34799;51.440;-2.534;2022-08-03T11:30:10;4.05;;;0.60;;
48987;SDS011;34799;51.440;-2.534;2022-08-03T11:40:33;3.70;;;0.90;;
48987;SDS011;34799;51.440;-2.534;2022-08-03T11:43:08;2.57;;;0.60;;
48987;SDS011;34799;51.440;-2.534;2022-08-03T11:48:33;4.85;;;1.17;;
48987;SDS011;34799;51.440;-2.534;2022-08-03T11:51:00;2.28;;;0.57;;
48987;SDS011;34799;51.440;-2.534;2022-08-03T11:53:28;1.98;;;0.65;;
48987;SDS011;34799;51.440;-2.534;2022-08-03T11:56:00;3.22;;;0.60;;
48987;SDS011;34799;51.440;-2.534;2022-08-03T11:58:27;5.97;;;0.63;;
48987;SDS011;34799;51.440;-2.534;2022-08-03T12:01:04;5.55;;;0.63;;
48987;SDS011;34799;51.440;-2.534;2022-08-03T12:03:34;2.60;;;0.50;;
48987;SDS011;34799;51.440;-2.534;2022-08-03T12:06:01;3.83;;;0.70;;
48987;SDS011;34799;51.440;-2.534;2022-08-03T12:08:35;5.07;;;1.42;;
48987;SDS011;34799;51.440;-2.534;2022-08-03T12:11:03;4.80;;;0.82;;
48987;SDS011;34799;51.440;-2.534;2022-08-03T12:13:50;4.03;;;0.80;;
48987;SDS011;34799;51.440;-2.534;2022-08-03T12:16:20;2.53;;;0.90;;
48987;SDS011;34799;51.440;-2.534;2022-08-03T12:18:58;6.35;;;1.63;;
48987;SDS011;34799;51.440;-2.534;2022-08-03T12:21:28;10.15;;;3.45;;
48987;SDS011;34799;51.440;-2.534;2022-08-03T12:23:56;10.52;;;1.90;;
48987;SDS011;34799;51.440;-2.534;2022-08-03T12:26:41;6.03;;;1.40;;
48987;SDS011;34799;51.440;-2.534;2022-08-03T12:29:16;4.35;;;0.60;;
48987;SDS011;34799;51.440;-2.534;2022-08-03T12:31:48;2.05;;;0.57;;
48987;SDS011;34799;51.440;-2.534;2022-08-03T12:34:15;3.20;;;0.90;;
48987;SDS011;34799;51.440;-2.534;2022-08-03T12:36:50;4.45;;;0.88;;
48987;SDS011;34799;51.440;-2.534;2022-08-03T12:39:21;3.10;;;0.63;;
48987;SDS011;34799;51.440;-2.534;2022-08-03T12:41:53;3.75;;;0.70;;
48987;SDS011;34799;51.440;-2.534;2022-08-03T12:44:28;6.28;;;0.68;;
48987;SDS011;34799;51.440;-2.534;2022-08-03T12:46:57;2.08;;;0.90;;
48987;SDS011;34799;51.440;-2.534;2022-08-03T12:49:25;7.43;;;2.33;;
48987;SDS011;34799;51.440;-2.534;2022-08-03T12:54:20;3.30;;;1.13;;
48987;SDS011;34799;51.440;-2.534;2022-08-03T12:56:58;4.90;;;0.80;;
48987;SDS011;34799;51.440;-2.534;2022-08-03T12:59:30;6.68;;;1.08;;
48987;SDS011;34799;51.440;-2.534;2022-08-03T13:02:03;4.38;;;1.00;;
48987;SDS011;34799;51.440;-2.534;2022-08-03T13:04:31;6.32;;;0.90;;
48987;SDS011;34799;51.440;-2.534;2022-08-03T13:07:02;4.80;;;0.60;;
48987;SDS011;34799;51.440;-2.534;2022-08-03T13:12:44;4.53;;;0.70;;
48987;SDS011;34799;51.440;-2.534;2022-08-03T13:15:13;4.25;;;0.60;;
48987;SDS011;34799;51.440;-2.534;2022-08-03T13:17:40;3.03;;;0.55;;
48987;SDS011;34799;51.440;-2.534;2022-08-03T13:20:08;2.88;;;0.70;;
48987;SDS011;34799;51.440;-2.534;2022-08-03T13:22:35;2.92;;;0.40;;
48987;SDS011;34799;51.440;-2.534;2022-08-03T13:25:02;5.43;;;0.65;;
48987;SDS011;34799;51.440;-2.534;2022-08-03T13:27:31;3.97;;;0.70;;
48987;SDS011;34799;51.440;-2.534;2022-08-03T13:29:58;2.33;;;0.40;;
48987;SDS011;34799;51.440;-2.534;2022-08-03T13:32:25;3.65;;;0.60;;
48987;SDS011;34799;51.440;-2.534;2022-08-03T13:34:52;2.83;;;0.75;;
48987;SDS011;34799;51.440;-2.534;2022-08-03T13:37:19;4.38;;;0.70;;
48987;SDS011;34799;51.440;-2.534;2022-08-03T13:39:47;4.47;;;0.85;;
48987;SDS011;34799;51.440;-2.534;2022-08-03T13:42:14;2.45;;;0.50;;
48987;SDS011;34799;51.440;-2.534;2022-08-03T13:44:42;3.63;;;0.50;;
48987;SDS011;34799;51.440;-2.534;2022-08-03T13:47:09;4.63;;;0.45;;
48987;SDS011;34799;51.440;-2.534;2022-08-03T13:49:36;1.85;;;0.50;;
48987;SDS011;34799;51.440;-2.534;2022-08-03T13:52:03;1.63;;;0.32;;
48987;SDS011;34799;51.440;-2.534;2022-08-03T13:54:30;4.10;;;0.70;;
48987;SDS011;34799;51.440;-2.534;2022-08-03T13:56:59;4.43;;;0.90;;
48987;SDS011;34799;51.440;-2.534;2022-08-03T13:59:27;4.03;;;0.88;;
48987;SDS011;34799;51.440;-2.534;2022-08-03T14:01:54;3.33;;;0.50;;
48987;SDS011;34799;51.440;-2.534;2022-08-03T14:04:21;3.92;;;0.40;;
48987;SDS011;34799;51.440;-2.534;2022-08-03T14:06:48;3.35;;;0.40;;
48987;SDS011;34799;51.440;-2.534;2022-08-03T14:09:16;2.67;;;0.38;;
48987;SDS011;34799;51.440;-2.534;2022-08-03T14:11:44;4.80;;;0.50;;
48987;SDS011;34799;51.440;-2.534;2022-08-03T14:14:13;3.08;;;0.40;;
48987;SDS011;34799;51.440;-2.534;2022-08-03T14:16:40;3.33;;;1.05;;
48987;SDS011;34799;51.440;-2.534;2022-08-03T14:19:09;2.20;;;0.68;;
48987;SDS011;34799;51.440;-2.534;2022-08-03T14:21:36;5.97;;;0.43;;
48987;SDS011;34799;51.440;-2.534;2022-08-03T14:24:03;2.30;;;0.30;;
48987;SDS011;34799;51.440;-2.534;2022-08-03T14:26:30;2.47;;;0.32;;
48987;SDS011;34799;51.440;-2.534;2022-08-03T14:28:57;3.78;;;0.45;;
48987;SDS011;34799;51.440;-2.534;2022-08-03T14:31:24;3.33;;;0.50;;
48987;SDS011;34799;51.440;-2.534;2022-08-03T14:33:53;2.58;;;0.47;;
48987;SDS011;34799;51.440;-2.534;2022-08-03T14:36:20;2.47;;;0.77;;
48987;SDS011;34799;51.440;-2.534;2022-08-03T14:38:47;5.28;;;0.30;;
48987;SDS011;34799;51.440;-2.534;2022-08-03T14:41:15;3.67;;;0.50;;
48987;SDS011;34799;51.440;-2.534;2022-08-03T14:43:42;6.65;;;0.50;;
48987;SDS011;34799;51.440;-2.534;2022-08-03T14:46:10;1.58;;;0.40;;
48987;SDS011;34799;51.440;-2.534;2022-08-03T14:48:37;4.32;;;0.50;;
48987;SDS011;34799;51.440;-2.534;2022-08-03T14:51:05;1.67;;;0.40;;
48987;SDS011;34799;51.440;-2.534;2022-08-03T14:53:33;3.72;;;0.73;;
48987;SDS011;34799;51.440;-2.534;2022-08-03T14:56:00;2.80;;;0.60;;
48987;SDS011;34799;51.440;-2.534;2022-08-03T14:58:29;2.05;;;0.60;;
48987;SDS011;34799;51.440;-2.534;2022-08-03T15:00:56;1.85;;;0.65;;
48987;SDS011;34799;51.440;-2.534;2022-08-03T15:03:23;2.72;;;0.50;;
48987;SDS011;34799;51.440;-2.534;2022-08-03T15:05:51;2.28;;;0.40;;
48987;SDS011;34799;51.440;-2.534;2022-08-03T15:08:21;5.57;;;0.70;;
48987;SDS011;34799;51.440;-2.534;2022-08-03T15:10:50;2.85;;;0.50;;
48987;SDS011;34799;51.440;-2.534;2022-08-03T15:13:18;3.00;;;0.38;;
48987;SDS011;34799;51.440;-2.534;2022-08-03T15:15:47;4.65;;;0.60;;
48987;SDS011;34799;51.440;-2.534;2022-08-03T15:18:15;2.80;;;1.08;;
48987;SDS011;34799;51.440;-2.534;2022-08-03T15:20:42;3.17;;;0.50;;
48987;SDS011;34799;51.440;-2.534;2022-08-03T15:23:11;3.28;;;0.55;;
48987;SDS011;34799;51.440;-2.534;2022-08-03T15:25:39;2.72;;;0.63;;
48987;SDS011;34799;51.440;-2.534;2022-08-03T15:28:07;2.80;;;0.63;;
48987;SDS011;34799;51.440;-2.534;2022-08-03T15:30:34;1.67;;;0.35;;